sensor_id;sensor_type;location;lat;lon;timestamp;temperature;humidity
59961;DHT22;55902;-37.980;-63.602;2023-03-14T01:17:43;22.30;99.90
59961;DHT22;55902;-37.980;-63.602;2023-03-14T01:20:12;22.60;99.90
59961;DHT22;55902;-37.980;-63.602;2023-03-14T01:22:43;22.60;99.90
59961;DHT22;55902;-37.980;-63.602;2023-03-14T01:25:13;22.60;99.90
59961;DHT22;55902;-37.980;-63.602;2023-03-14T01:27:40;22.60;99.90
59961;DHT22;55902;-37.980;-63.602;2023-03-14T01:30:08;22.50;99.90
59961;DHT22;55902;-37.980;-63.602;2023-03-14T01:32:36;22.40;99.90
59961;DHT22;55902;-37.980;-63.602;2023-03-14T01:35:04;22.40;99.90
59961;DHT22;55902;-37.980;-63.602;2023-03-14T01:37:35;22.40;99.90
59961;DHT22;55902;-37.980;-63.602;2023-03-14T01:40:03;22.30;99.90
59961;DHT22;55902;-37.980;-63.602;2023-03-14T01:42:31;22.30;99.90
59961;DHT22;55902;-37.980;-63.602;2023-03-14T01:45:02;22.30;99.90
59961;DHT22;55902;-37.980;-63.602;2023-03-14T01:47:33;22.20;99.90
59961;DHT22;55902;-37.980;-63.602;2023-03-14T01:50:04;22.20;99.90
59961;DHT22;55902;-37.980;-63.602;2023-03-14T01:52:44;22.20;99.90
59961;DHT22;55902;-37.980;-63.602;2023-03-14T01:55:21;22.20;99.90
59961;DHT22;55902;-37.980;-63.602;2023-03-14T01:58:05;22.20;99.90
59961;DHT22;55902;-37.980;-63.602;2023-03-14T02:00:34;22.20;99.90
59961;DHT22;55902;-37.980;-63.602;2023-03-14T02:03:10;22.10;99.90
59961;DHT22;55902;-37.980;-63.602;2023-03-14T02:05:40;22.10;99.90
59961;DHT22;55902;-37.980;-63.602;2023-03-14T02:08:13;22.10;99.90
59961;DHT22;55902;-37.980;-63.602;2023-03-14T02:10:50;22.10;99.90
59961;DHT22;55902;-37.980;-63.602;2023-03-14T02:13:18;22.10;99.90
59961;DHT22;55902;-37.980;-63.602;2023-03-14T02:15:46;22.10;99.90
59961;DHT22;55902;-37.980;-63.602;2023-03-14T02:18:15;22.00;99.90
59961;DHT22;55902;-37.980;-63.602;2023-03-14T02:21:05;22.00;99.90
59961;DHT22;55902;-37.980;-63.602;2023-03-14T02:24:38;21.90;99.90
59961;DHT22;55902;-37.980;-63.602;2023-03-14T02:29:30;21.90;99.90
59961;DHT22;55902;-37.980;-63.602;2023-03-14T02:31:58;21.90;99.90
59961;DHT22;55902;-37.980;-63.602;2023-03-14T02:34:26;21.90;99.90
59961;DHT22;55902;-37.980;-63.602;2023-03-14T02:36:53;21.90;99.90
59961;DHT22;55902;-37.980;-63.602;2023-03-14T02:39:39;21.80;99.90
59961;DHT22;55902;-37.980;-63.602;2023-03-14T02:42:08;21.80;99.90
59961;DHT22;55902;-37.980;-63.602;2023-03-14T02:44:45;21.80;99.90
59961;DHT22;55902;-37.980;-63.602;2023-03-14T02:47:16;21.80;99.90
59961;DHT22;55902;-37.980;-63.602;2023-03-14T02:49:45;21.80;99.90
59961;DHT22;55902;-37.980;-63.602;2023-03-14T02:52:12;21.80;99.90
59961;DHT22;55902;-37.980;-63.602;2023-03-14T02:54:39;21.70;99.90
59961;DHT22;55902;-37.980;-63.602;2023-03-14T02:57:09;21.70;99.90
59961;DHT22;55902;-37.980;-63.602;2023-03-14T02:59:36;21.70;99.90
59961;DHT22;55902;-37.980;-63.602;2023-03-14T03:02:06;21.70;99.90
59961;DHT22;55902;-37.980;-63.602;2023-03-14T03:04:36;21.70;99.90
59961;DHT22;55902;-37.980;-63.602;2023-03-14T03:07:06;21.70;99.90
59961;DHT22;55902;-37.980;-63.602;2023-03-14T03:09:36;21.70;99.90
59961;DHT22;55902;-37.980;-63.602;2023-03-14T03:12:03;21.70;99.90
59961;DHT22;55902;-37.980;-63.602;2023-03-14T03:14:36;21.70;99.90
59961;DHT22;55902;-37.980;-63.602;2023-03-14T03:17:06;21.60;99.90
59961;DHT22;55902;-37.980;-63.602;2023-03-14T03:19:36;21.70;99.90
59961;DHT22;55902;-37.980;-63.602;2023-03-14T03:22:08;21.60;99.90
59961;DHT22;55902;-37.980;-63.602;2023-03-14T03:24:41;21.60;99.90
59961;DHT22;55902;-37.980;-63.602;2023-03-14T03:27:08;21.70;99.90
59961;DHT22;55902;-37.980;-63.602;2023-03-14T03:29:35;21.60;99.90
59961;DHT22;55902;-37.980;-63.602;2023-03-14T03:32:04;21.70;99.90
59961;DHT22;55902;-37.980;-63.602;2023-03-14T03:34:31;21.60;99.90
59961;DHT22;55902;-37.980;-63.602;2023-03-14T03:36:58;21.60;99.90
59961;DHT22;55902;-37.980;-63.602;2023-03-14T03:39:25;21.60;99.90
59961;DHT22;55902;-37.980;-63.602;2023-03-14T03:41:52;21.60;99.90
59961;DHT22;55902;-37.980;-63.602;2023-03-14T03:44:19;21.60;99.90
59961;DHT22;55902;-37.980;-63.602;2023-03-14T03:46:46;21.50;99.90
59961;DHT22;55902;-37.980;-63.602;2023-03-14T03:59:21;21.50;99.90
59961;DHT22;55902;-37.980;-63.602;2023-03-14T04:01:49;21.50;99.90
59961;DHT22;55902;-37.980;-63.602;2023-03-14T04:04:17;21.50;99.90
59961;DHT22;55902;-37.980;-63.602;2023-03-14T04:06:47;21.50;99.90
59961;DHT22;55902;-37.980;-63.602;2023-03-14T04:09:14;21.50;99.90
59961;DHT22;55902;-37.980;-63.602;2023-03-14T04:11:44;21.50;99.90
59961;DHT22;55902;-37.980;-63.602;2023-03-14T04:14:12;21.50;99.90
59961;DHT22;55902;-37.980;-63.602;2023-03-14T04:16:42;21.50;99.90
59961;DHT22;55902;-37.980;-63.602;2023-03-14T04:19:12;21.50;99.90
59961;DHT22;55902;-37.980;-63.602;2023-03-14T04:21:41;21.50;99.90
59961;DHT22;55902;-37.980;-63.602;2023-03-14T04:24:14;21.50;99.90
59961;DHT22;55902;-37.980;-63.602;2023-03-14T04:26:41;21.50;99.90
59961;DHT22;55902;-37.980;-63.602;2023-03-14T04:29:08;21.50;99.90
59961;DHT22;55902;-37.980;-63.602;2023-03-14T04:31:35;21.60;99.90
59961;DHT22;55902;-37.980;-63.602;2023-03-14T04:34:02;21.60;99.90
59961;DHT22;55902;-37.980;-63.602;2023-03-14T04:36:29;21.50;99.90
59961;DHT22;55902;-37.980;-63.602;2023-03-14T04:38:56;21.50;99.90
59961;DHT22;55902;-37.980;-63.602;2023-03-14T04:41:23;21.50;99.90
59961;DHT22;55902;-37.980;-63.602;2023-03-14T04:43:52;21.50;99.90
59961;DHT22;55902;-37.980;-63.602;2023-03-14T04:46:23;21.50;99.90
59961;DHT22;55902;-37.980;-63.602;2023-03-14T04:48:52;21.50;99.90
59961;DHT22;55902;-37.980;-63.602;2023-03-14T04:51:20;21.50;99.90
59961;DHT22;55902;-37.980;-63.602;2023-03-14T04:53:49;21.50;99.90
59961;DHT22;55902;-37.980;-63.602;2023-03-14T04:56:16;21.50;99.90
59961;DHT22;55902;-37.980;-63.602;2023-03-14T04:58:43;21.50;99.90
59961;DHT22;55902;-37.980;-63.602;2023-03-14T05:01:13;21.50;99.90
59961;DHT22;55902;-37.980;-63.602;2023-03-14T05:03:40;21.50;99.90
59961;DHT22;55902;-37.980;-63.602;2023-03-14T05:06:07;21.50;99.90
59961;DHT22;55902;-37.980;-63.602;2023-03-14T05:08:38;21.50;99.90
59961;DHT22;55902;-37.980;-63.602;2023-03-14T05:11:13;21.50;99.90
59961;DHT22;55902;-37.980;-63.602;2023-03-14T05:13:40;21.40;99.90
59961;DHT22;55902;-37.980;-63.602;2023-03-14T05:16:09;21.40;99.90
59961;DHT22;55902;-37.980;-63.602;2023-03-14T05:18:40;21.40;99.90
59961;DHT22;55902;-37.980;-63.602;2023-03-14T05:21:07;21.40;99.90
59961;DHT22;55902;-37.980;-63.602;2023-03-14T05:23:34;21.40;99.90
59961;DHT22;55902;-37.980;-63.602;2023-03-14T05:26:01;21.40;99.90
59961;DHT22;55902;-37.980;-63.602;2023-03-14T05:28:32;21.40;99.90
59961;DHT22;55902;-37.980;-63.602;2023-03-14T05:31:06;21.30;99.90
59961;DHT22;55902;-37.980;-63.602;2023-03-14T05:33:33;21.30;99.90
59961;DHT22;55902;-37.980;-63.602;2023-03-14T05:36:04;21.30;99.90
59961;DHT22;55902;-37.980;-63.602;2023-03-14T05:38:31;21.30;99.90
59961;DHT22;55902;-37.980;-63.602;2023-03-14T05:41:01;21.30;99.90
59961;DHT22;55902;-37.980;-63.602;2023-03-14T05:43:31;21.30;99.90
59961;DHT22;55902;-37.980;-63.602;2023-03-14T05:45:58;21.30;99.90
59961;DHT22;55902;-37.980;-63.602;2023-03-14T05:48:27;21.30;99.90
59961;DHT22;55902;-37.980;-63.602;2023-03-14T05:50:57;21.30;99.90
59961;DHT22;55902;-37.980;-63.602;2023-03-14T05:53:26;21.20;99.90
59961;DHT22;55902;-37.980;-63.602;2023-03-14T05:56:00;21.20;99.90
59961;DHT22;55902;-37.980;-63.602;2023-03-14T05:58:27;21.20;99.90
59961;DHT22;55902;-37.980;-63.602;2023-03-14T06:00:54;21.20;99.90
59961;DHT22;55902;-37.980;-63.602;2023-03-14T06:03:21;21.20;99.90
59961;DHT22;55902;-37.980;-63.602;2023-03-14T06:05:51;21.20;99.90
59961;DHT22;55902;-37.980;-63.602;2023-03-14T06:08:21;21.10;99.90
59961;DHT22;55902;-37.980;-63.602;2023-03-14T06:10:48;21.00;99.90
59961;DHT22;55902;-37.980;-63.602;2023-03-14T06:13:18;21.00;99.90
59961;DHT22;55902;-37.980;-63.602;2023-03-14T06:15:45;20.90;99.90
59961;DHT22;55902;-37.980;-63.602;2023-03-14T06:18:15;20.90;99.90
59961;DHT22;55902;-37.980;-63.602;2023-03-14T06:20:44;20.80;99.90
59961;DHT22;55902;-37.980;-63.602;2023-03-14T06:23:15;20.80;99.90
59961;DHT22;55902;-37.980;-63.602;2023-03-14T06:25:48;20.80;99.90
59961;DHT22;55902;-37.980;-63.602;2023-03-14T06:28:15;20.70;99.90
59961;DHT22;55902;-37.980;-63.602;2023-03-14T06:30:41;20.70;99.90
59961;DHT22;55902;-37.980;-63.602;2023-03-14T06:33:12;20.60;99.90
59961;DHT22;55902;-37.980;-63.602;2023-03-14T06:35:40;20.60;99.90
59961;DHT22;55902;-37.980;-63.602;2023-03-14T06:38:10;20.50;99.90
59961;DHT22;55902;-37.980;-63.602;2023-03-14T06:40:39;20.60;99.90
59961;DHT22;55902;-37.980;-63.602;2023-03-14T06:46:31;20.50;99.90
59961;DHT22;55902;-37.980;-63.602;2023-03-14T06:48:58;20.50;99.90
59961;DHT22;55902;-37.980;-63.602;2023-03-14T06:51:31;20.50;99.90
59961;DHT22;55902;-37.980;-63.602;2023-03-14T06:53:59;20.50;99.90
59961;DHT22;55902;-37.980;-63.602;2023-03-14T06:56:26;20.50;99.90
59961;DHT22;55902;-37.980;-63.602;2023-03-14T06:58:56;20.50;99.90
59961;DHT22;55902;-37.980;-63.602;2023-03-14T07:01:28;20.40;99.90
59961;DHT22;55902;-37.980;-63.602;2023-03-14T07:03:59;20.40;99.90
59961;DHT22;55902;-37.980;-63.602;2023-03-14T07:06:29;20.40;99.90
59961;DHT22;55902;-37.980;-63.602;2023-03-14T07:09:01;20.30;99.90
59961;DHT22;55902;-37.980;-63.602;2023-03-14T07:11:34;20.30;99.90
59961;DHT22;55902;-37.980;-63.602;2023-03-14T07:14:01;20.30;99.90
59961;DHT22;55902;-37.980;-63.602;2023-03-14T07:16:28;20.20;99.90
59961;DHT22;55902;-37.980;-63.602;2023-03-14T07:19:02;20.30;99.90
59961;DHT22;55902;-37.980;-63.602;2023-03-14T07:21:29;20.30;99.90
59961;DHT22;55902;-37.980;-63.602;2023-03-14T07:23:58;20.20;99.90
59961;DHT22;55902;-37.980;-63.602;2023-03-14T07:26:25;20.20;99.90
59961;DHT22;55902;-37.980;-63.602;2023-03-14T07:28:55;20.20;99.90
59961;DHT22;55902;-37.980;-63.602;2023-03-14T07:31:22;20.10;99.90
59961;DHT22;55902;-37.980;-63.602;2023-03-14T07:33:49;20.10;99.90
59961;DHT22;55902;-37.980;-63.602;2023-03-14T07:36:19;20.10;99.90
59961;DHT22;55902;-37.980;-63.602;2023-03-14T07:38:49;20.00;99.90
59961;DHT22;55902;-37.980;-63.602;2023-03-14T07:41:22;20.00;99.90
59961;DHT22;55902;-37.980;-63.602;2023-03-14T07:43:53;20.00;99.90
59961;DHT22;55902;-37.980;-63.602;2023-03-14T07:46:20;19.90;99.90
59961;DHT22;55902;-37.980;-63.602;2023-03-14T07:48:51;19.90;99.90
59961;DHT22;55902;-37.980;-63.602;2023-03-14T07:51:24;19.90;99.90
59961;DHT22;55902;-37.980;-63.602;2023-03-14T07:53:51;19.90;99.90
59961;DHT22;55902;-37.980;-63.602;2023-03-14T07:56:18;19.90;99.90
59961;DHT22;55902;-37.980;-63.602;2023-03-14T07:58:45;19.80;99.90
59961;DHT22;55902;-37.980;-63.602;2023-03-14T08:01:11;19.80;99.90
59961;DHT22;55902;-37.980;-63.602;2023-03-14T08:03:39;19.80;99.90
59961;DHT22;55902;-37.980;-63.602;2023-03-14T08:06:06;19.80;99.90
59961;DHT22;55902;-37.980;-63.602;2023-03-14T08:08:35;19.80;99.90
59961;DHT22;55902;-37.980;-63.602;2023-03-14T08:11:04;19.70;99.90
59961;DHT22;55902;-37.980;-63.602;2023-03-14T08:24:18;19.80;99.90
59961;DHT22;55902;-37.980;-63.602;2023-03-14T08:26:47;19.80;99.90
59961;DHT22;55902;-37.980;-63.602;2023-03-14T08:29:14;19.80;99.90
59961;DHT22;55902;-37.980;-63.602;2023-03-14T08:31:41;19.90;99.90
59961;DHT22;55902;-37.980;-63.602;2023-03-14T08:34:08;19.90;99.90
59961;DHT22;55902;-37.980;-63.602;2023-03-14T08:36:35;19.90;99.90
59961;DHT22;55902;-37.980;-63.602;2023-03-14T08:39:06;20.00;99.90
59961;DHT22;55902;-37.980;-63.602;2023-03-14T08:41:34;19.90;99.90
59961;DHT22;55902;-37.980;-63.602;2023-03-14T08:44:10;20.00;99.90
59961;DHT22;55902;-37.980;-63.602;2023-03-14T08:46:39;20.00;99.90
59961;DHT22;55902;-37.980;-63.602;2023-03-14T08:49:09;20.00;99.90
59961;DHT22;55902;-37.980;-63.602;2023-03-14T08:51:36;20.00;99.90
59961;DHT22;55902;-37.980;-63.602;2023-03-14T08:54:03;20.00;99.90
59961;DHT22;55902;-37.980;-63.602;2023-03-14T08:56:30;20.00;99.90
59961;DHT22;55902;-37.980;-63.602;2023-03-14T08:59:00;20.00;99.90
59961;DHT22;55902;-37.980;-63.602;2023-03-14T09:01:27;20.00;99.90
59961;DHT22;55902;-37.980;-63.602;2023-03-14T09:03:54;20.00;99.90
59961;DHT22;55902;-37.980;-63.602;2023-03-14T09:06:24;20.00;99.90
59961;DHT22;55902;-37.980;-63.602;2023-03-14T09:08:51;20.00;99.90
59961;DHT22;55902;-37.980;-63.602;2023-03-14T09:11:21;20.00;99.90
59961;DHT22;55902;-37.980;-63.602;2023-03-14T09:13:54;20.00;99.90
59961;DHT22;55902;-37.980;-63.602;2023-03-14T09:16:21;20.00;99.90
59961;DHT22;55902;-37.980;-63.602;2023-03-14T09:18:51;20.00;99.90
59961;DHT22;55902;-37.980;-63.602;2023-03-14T09:21:28;20.00;99.90
59961;DHT22;55902;-37.980;-63.602;2023-03-14T09:24:01;20.00;99.90
59961;DHT22;55902;-37.980;-63.602;2023-03-14T09:26:32;20.00;99.90
59961;DHT22;55902;-37.980;-63.602;2023-03-14T09:28:59;20.00;99.90
59961;DHT22;55902;-37.980;-63.602;2023-03-14T09:31:26;20.00;99.90
59961;DHT22;55902;-37.980;-63.602;2023-03-14T09:33:58;20.00;99.90
59961;DHT22;55902;-37.980;-63.602;2023-03-14T09:36:50;19.90;99.90
59961;DHT22;55902;-37.980;-63.602;2023-03-14T09:39:21;19.90;99.90
59961;DHT22;55902;-37.980;-63.602;2023-03-14T09:41:59;19.90;99.90
59961;DHT22;55902;-37.980;-63.602;2023-03-14T09:44:42;19.90;99.90
59961;DHT22;55902;-37.980;-63.602;2023-03-14T09:47:21;19.90;99.90
59961;DHT22;55902;-37.980;-63.602;2023-03-14T09:49:56;19.90;99.90
59961;DHT22;55902;-37.980;-63.602;2023-03-14T09:52:33;19.90;99.90
59961;DHT22;55902;-37.980;-63.602;2023-03-14T09:55:06;19.90;99.90
59961;DHT22;55902;-37.980;-63.602;2023-03-14T09:57:37;19.80;99.90
59961;DHT22;55902;-37.980;-63.602;2023-03-14T10:00:26;19.80;99.90
59961;DHT22;55902;-37.980;-63.602;2023-03-14T10:03:29;19.80;99.90
59961;DHT22;55902;-37.980;-63.602;2023-03-14T10:05:58;19.80;99.90
59961;DHT22;55902;-37.980;-63.602;2023-03-14T10:08:31;19.70;99.90
59961;DHT22;55902;-37.980;-63.602;2023-03-14T10:10:58;19.70;99.90
59961;DHT22;55902;-37.980;-63.602;2023-03-14T10:13:29;19.70;99.90
59961;DHT22;55902;-37.980;-63.602;2023-03-14T10:16:01;19.80;99.90
59961;DHT22;55902;-37.980;-63.602;2023-03-14T10:18:30;19.80;99.90
59961;DHT22;55902;-37.980;-63.602;2023-03-14T10:23:49;19.80;99.90
59961;DHT22;55902;-37.980;-63.602;2023-03-14T10:26:19;19.80;99.90
59961;DHT22;55902;-37.980;-63.602;2023-03-14T10:29:01;19.80;99.90
59961;DHT22;55902;-37.980;-63.602;2023-03-14T10:34:27;19.80;99.90
59961;DHT22;55902;-37.980;-63.602;2023-03-14T10:37:07;19.80;99.90
59961;DHT22;55902;-37.980;-63.602;2023-03-14T10:40:12;19.90;99.90
59961;DHT22;55902;-37.980;-63.602;2023-03-14T10:42:42;19.90;99.90
59961;DHT22;55902;-37.980;-63.602;2023-03-14T10:45:32;19.90;99.90
59961;DHT22;55902;-37.980;-63.602;2023-03-14T10:48:21;20.00;99.90
59961;DHT22;55902;-37.980;-63.602;2023-03-14T10:51:18;20.00;99.90
59961;DHT22;55902;-37.980;-63.602;2023-03-14T10:54:01;20.00;99.90
59961;DHT22;55902;-37.980;-63.602;2023-03-14T10:56:38;20.00;99.90
59961;DHT22;55902;-37.980;-63.602;2023-03-14T10:59:12;20.10;99.90
59961;DHT22;55902;-37.980;-63.602;2023-03-14T11:01:55;20.10;99.90
59961;DHT22;55902;-37.980;-63.602;2023-03-14T11:07:21;20.20;99.90
59961;DHT22;55902;-37.980;-63.602;2023-03-14T11:12:46;20.20;99.90
59961;DHT22;55902;-37.980;-63.602;2023-03-14T11:15:25;20.20;99.90
59961;DHT22;55902;-37.980;-63.602;2023-03-14T11:18:22;20.20;99.90
59961;DHT22;55902;-37.980;-63.602;2023-03-14T11:21:01;20.20;99.90
59961;DHT22;55902;-37.980;-63.602;2023-03-14T11:30:55;20.30;99.90
59961;DHT22;55902;-37.980;-63.602;2023-03-14T11:33:51;20.30;99.90
59961;DHT22;55902;-37.980;-63.602;2023-03-14T11:36:28;20.40;99.90
59961;DHT22;55902;-37.980;-63.602;2023-03-14T11:39:00;20.50;99.90
59961;DHT22;55902;-37.980;-63.602;2023-03-14T11:41:49;20.50;99.90
59961;DHT22;55902;-37.980;-63.602;2023-03-14T11:49:32;20.90;99.90
59961;DHT22;55902;-37.980;-63.602;2023-03-14T11:52:09;21.00;99.90
59961;DHT22;55902;-37.980;-63.602;2023-03-14T11:54:48;21.20;99.90
59961;DHT22;55902;-37.980;-63.602;2023-03-14T11:57:18;21.20;99.90
59961;DHT22;55902;-37.980;-63.602;2023-03-14T12:00:06;21.30;99.90
59961;DHT22;55902;-37.980;-63.602;2023-03-14T12:03:04;21.40;99.90
59961;DHT22;55902;-37.980;-63.602;2023-03-14T12:06:00;21.50;99.90
59961;DHT22;55902;-37.980;-63.602;2023-03-14T12:08:39;21.70;99.90
59961;DHT22;55902;-37.980;-63.602;2023-03-14T12:13:57;22.30;99.90
59961;DHT22;55902;-37.980;-63.602;2023-03-14T12:24:33;23.80;99.90
59961;DHT22;55902;-37.980;-63.602;2023-03-14T12:27:16;24.20;99.90
59961;DHT22;55902;-37.980;-63.602;2023-03-14T12:30:01;24.50;99.90
59961;DHT22;55902;-37.980;-63.602;2023-03-14T12:32:28;24.80;99.90
59961;DHT22;55902;-37.980;-63.602;2023-03-14T12:34:55;25.10;99.90
59961;DHT22;55902;-37.980;-63.602;2023-03-14T12:37:48;25.20;99.90
59961;DHT22;55902;-37.980;-63.602;2023-03-14T12:40:30;25.40;99.90
59961;DHT22;55902;-37.980;-63.602;2023-03-14T12:43:02;25.60;99.90
59961;DHT22;55902;-37.980;-63.602;2023-03-14T12:45:31;25.80;99.90
59961;DHT22;55902;-37.980;-63.602;2023-03-14T12:48:22;25.90;99.90
59961;DHT22;55902;-37.980;-63.602;2023-03-14T12:51:00;26.20;99.90
59961;DHT22;55902;-37.980;-63.602;2023-03-14T12:59:31;26.90;99.90
59961;DHT22;55902;-37.980;-63.602;2023-03-14T13:04:46;27.30;99.90
59961;DHT22;55902;-37.980;-63.602;2023-03-14T13:07:32;27.60;99.90
59961;DHT22;55902;-37.980;-63.602;2023-03-14T13:12:57;28.00;99.90
59961;DHT22;55902;-37.980;-63.602;2023-03-14T13:18:17;28.40;99.90
59961;DHT22;55902;-37.980;-63.602;2023-03-14T13:20:54;28.70;99.90
59961;DHT22;55902;-37.980;-63.602;2023-03-14T13:23:26;28.90;99.90
59961;DHT22;55902;-37.980;-63.602;2023-03-14T13:25:58;29.20;99.90
59961;DHT22;55902;-37.980;-63.602;2023-03-14T13:28:44;29.40;99.90
59961;DHT22;55902;-37.980;-63.602;2023-03-14T13:31:22;29.70;99.90
59961;DHT22;55902;-37.980;-63.602;2023-03-14T13:34:06;29.90;99.90
59961;DHT22;55902;-37.980;-63.602;2023-03-14T13:36:36;29.90;99.90
59961;DHT22;55902;-37.980;-63.602;2023-03-14T13:39:28;30.10;99.90
59961;DHT22;55902;-37.980;-63.602;2023-03-14T13:42:00;30.30;99.90
59961;DHT22;55902;-37.980;-63.602;2023-03-14T13:44:35;30.30;99.90
59961;DHT22;55902;-37.980;-63.602;2023-03-14T13:47:06;30.30;99.90
59961;DHT22;55902;-37.980;-63.602;2023-03-14T13:49:40;30.30;99.90
59961;DHT22;55902;-37.980;-63.602;2023-03-14T13:52:27;30.20;99.90
59961;DHT22;55902;-37.980;-63.602;2023-03-14T13:54:56;30.10;99.90
59961;DHT22;55902;-37.980;-63.602;2023-03-14T13:57:23;30.00;99.90
59961;DHT22;55902;-37.980;-63.602;2023-03-14T14:00:05;30.10;99.90
59961;DHT22;55902;-37.980;-63.602;2023-03-14T14:02:42;30.00;99.90
59961;DHT22;55902;-37.980;-63.602;2023-03-14T14:05:11;29.70;99.90
59961;DHT22;55902;-37.980;-63.602;2023-03-14T14:08:02;29.50;99.90
59961;DHT22;55902;-37.980;-63.602;2023-03-14T14:13:17;29.50;99.90
59961;DHT22;55902;-37.980;-63.602;2023-03-14T14:15:49;29.70;99.90
59961;DHT22;55902;-37.980;-63.602;2023-03-14T14:18:35;30.00;99.90
59961;DHT22;55902;-37.980;-63.602;2023-03-14T14:21:06;30.30;99.90
59961;DHT22;55902;-37.980;-63.602;2023-03-14T14:23:42;30.60;99.90
59961;DHT22;55902;-37.980;-63.602;2023-03-14T14:26:16;30.90;99.90
59961;DHT22;55902;-37.980;-63.602;2023-03-14T14:28:45;30.90;99.90
59961;DHT22;55902;-37.980;-63.602;2023-03-14T14:31:33;31.10;99.90
59961;DHT22;55902;-37.980;-63.602;2023-03-14T14:34:22;31.40;99.90
59961;DHT22;55902;-37.980;-63.602;2023-03-14T14:36:52;31.60;99.90
59961;DHT22;55902;-37.980;-63.602;2023-03-14T14:39:20;31.90;99.90
59961;DHT22;55902;-37.980;-63.602;2023-03-14T14:41:51;32.00;99.90
59961;DHT22;55902;-37.980;-63.602;2023-03-14T14:44:30;31.90;99.90
59961;DHT22;55902;-37.980;-63.602;2023-03-14T14:46:58;31.50;99.90
59961;DHT22;55902;-37.980;-63.602;2023-03-14T14:49:30;31.10;99.90
59961;DHT22;55902;-37.980;-63.602;2023-03-14T14:52:16;31.10;99.90
59961;DHT22;55902;-37.980;-63.602;2023-03-14T14:57:25;31.20;99.90
59961;DHT22;55902;-37.980;-63.602;2023-03-14T15:00:04;31.40;99.90
59961;DHT22;55902;-37.980;-63.602;2023-03-14T15:02:45;31.60;99.90
59961;DHT22;55902;-37.980;-63.602;2023-03-14T15:05:22;31.80;99.90
59961;DHT22;55902;-37.980;-63.602;2023-03-14T15:07:49;32.00;99.90
59961;DHT22;55902;-37.980;-63.602;2023-03-14T15:10:19;32.10;99.90
59961;DHT22;55902;-37.980;-63.602;2023-03-14T15:12:50;32.20;99.90
59961;DHT22;55902;-37.980;-63.602;2023-03-14T15:15:18;32.10;99.90
59961;DHT22;55902;-37.980;-63.602;2023-03-14T15:18:19;32.10;99.90
59961;DHT22;55902;-37.980;-63.602;2023-03-14T15:20:50;32.10;99.90
59961;DHT22;55902;-37.980;-63.602;2023-03-14T15:23:21;31.90;99.90
59961;DHT22;55902;-37.980;-63.602;2023-03-14T15:25:48;31.80;99.50
59961;DHT22;55902;-37.980;-63.602;2023-03-14T15:28:23;32.10;99.90
59961;DHT22;55902;-37.980;-63.602;2023-03-14T15:31:10;32.10;97.90
59961;DHT22;55902;-37.980;-63.602;2023-03-14T15:33:38;32.20;98.40
59961;DHT22;55902;-37.980;-63.602;2023-03-14T15:36:15;32.30;98.20
59961;DHT22;55902;-37.980;-63.602;2023-03-14T15:38:48;32.10;98.10
59961;DHT22;55902;-37.980;-63.602;2023-03-14T15:41:16;32.10;98.20
59961;DHT22;55902;-37.980;-63.602;2023-03-14T15:43:43;32.30;97.90
59961;DHT22;55902;-37.980;-63.602;2023-03-14T15:46:13;32.40;97.20
59961;DHT22;55902;-37.980;-63.602;2023-03-14T15:48:41;32.50;97.00
59961;DHT22;55902;-37.980;-63.602;2023-03-14T15:51:08;32.50;96.40
59961;DHT22;55902;-37.980;-63.602;2023-03-14T15:53:40;32.40;96.50
59961;DHT22;55902;-37.980;-63.602;2023-03-14T15:56:16;32.40;96.10
59961;DHT22;55902;-37.980;-63.602;2023-03-14T15:58:44;32.40;95.10
59961;DHT22;55902;-37.980;-63.602;2023-03-14T16:01:18;32.60;95.50
59961;DHT22;55902;-37.980;-63.602;2023-03-14T16:03:48;32.60;94.70
59961;DHT22;55902;-37.980;-63.602;2023-03-14T16:06:17;32.80;94.80
59961;DHT22;55902;-37.980;-63.602;2023-03-14T16:08:45;32.90;93.60
59961;DHT22;55902;-37.980;-63.602;2023-03-14T16:11:16;32.90;93.70
59961;DHT22;55902;-37.980;-63.602;2023-03-14T16:13:49;32.90;94.60
59961;DHT22;55902;-37.980;-63.602;2023-03-14T16:16:16;32.80;93.40
59961;DHT22;55902;-37.980;-63.602;2023-03-14T16:18:47;33.00;93.40
59961;DHT22;55902;-37.980;-63.602;2023-03-14T16:21:18;33.00;93.10
59961;DHT22;55902;-37.980;-63.602;2023-03-14T16:23:46;32.80;92.80
59961;DHT22;55902;-37.980;-63.602;2023-03-14T16:26:19;32.70;92.90
59961;DHT22;55902;-37.980;-63.602;2023-03-14T16:28:46;32.50;93.50
59961;DHT22;55902;-37.980;-63.602;2023-03-14T16:31:18;32.30;93.20
59961;DHT22;55902;-37.980;-63.602;2023-03-14T16:33:50;32.50;94.00
59961;DHT22;55902;-37.980;-63.602;2023-03-14T16:36:17;32.60;93.70
59961;DHT22;55902;-37.980;-63.602;2023-03-14T16:38:45;32.80;94.00
59961;DHT22;55902;-37.980;-63.602;2023-03-14T16:41:17;33.00;93.60
59961;DHT22;55902;-37.980;-63.602;2023-03-14T16:43:45;33.40;93.50
59961;DHT22;55902;-37.980;-63.602;2023-03-14T16:46:26;33.50;92.40
59961;DHT22;55902;-37.980;-63.602;2023-03-14T16:48:54;33.60;92.30
59961;DHT22;55902;-37.980;-63.602;2023-03-14T16:51:22;33.60;92.20
59961;DHT22;55902;-37.980;-63.602;2023-03-14T16:53:52;33.70;92.20
59961;DHT22;55902;-37.980;-63.602;2023-03-14T16:56:24;33.70;91.10
59961;DHT22;55902;-37.980;-63.602;2023-03-14T16:58:51;33.90;91.00
59961;DHT22;55902;-37.980;-63.602;2023-03-14T17:01:18;34.00;87.30
59961;DHT22;55902;-37.980;-63.602;2023-03-14T17:03:48;34.10;87.10
59961;DHT22;55902;-37.980;-63.602;2023-03-14T17:06:19;34.10;86.10
59961;DHT22;55902;-37.980;-63.602;2023-03-14T17:08:49;33.80;85.30
59961;DHT22;55902;-37.980;-63.602;2023-03-14T17:11:16;33.40;87.20
59961;DHT22;55902;-37.980;-63.602;2023-03-14T17:13:43;33.30;87.90
59961;DHT22;55902;-37.980;-63.602;2023-03-14T17:16:13;33.30;87.30
59961;DHT22;55902;-37.980;-63.602;2023-03-14T17:18:40;33.30;87.00
59961;DHT22;55902;-37.980;-63.602;2023-03-14T17:21:07;33.20;89.20
59961;DHT22;55902;-37.980;-63.602;2023-03-14T17:23:34;33.20;88.90
59961;DHT22;55902;-37.980;-63.602;2023-03-14T17:26:05;33.30;89.00
59961;DHT22;55902;-37.980;-63.602;2023-03-14T17:28:32;33.30;87.60
59961;DHT22;55902;-37.980;-63.602;2023-03-14T17:33:33;33.20;86.60
59961;DHT22;55902;-37.980;-63.602;2023-03-14T17:36:00;33.20;88.30
59961;DHT22;55902;-37.980;-63.602;2023-03-14T17:38:34;33.30;88.20
59961;DHT22;55902;-37.980;-63.602;2023-03-14T17:41:02;33.40;88.40
59961;DHT22;55902;-37.980;-63.602;2023-03-14T17:43:29;33.50;88.40
59961;DHT22;55902;-37.980;-63.602;2023-03-14T17:46:02;33.50;89.80
59961;DHT22;55902;-37.980;-63.602;2023-03-14T17:48:31;33.70;89.60
59961;DHT22;55902;-37.980;-63.602;2023-03-14T17:50:58;33.90;88.30
59961;DHT22;55902;-37.980;-63.602;2023-03-14T17:53:28;34.00;88.10
59961;DHT22;55902;-37.980;-63.602;2023-03-14T17:55:55;33.90;86.90
59961;DHT22;55902;-37.980;-63.602;2023-03-14T17:58:23;34.00;87.80